Airfield :
LOGIN :

Register | Disclaimer

   EN    FR    IT 

 










Legend :    VFR   Marginal VFR   IFR   Intensive IFR   Very Intensive IFR
Visi :
Ceiling :
>= 8 km
>= 3000ft
5 to 8 km
1000 to 3000 ft
1500m to 5 km
500 to 1000 ft
800 to 1500m
200 to 500 ft
< 800m
< 200 ft
Symbols :   Thunderstorms  Fog  Heavy snow  Heavy precipitations  Wind > 20 kt
SIGMETs :     Misc.  Thunderstorms  Icing  Turbulence  Mountain Waves  Volcanic Ashes







- Airport Elevation : 112 ft
- IATA code : SVQ


LEZL - Sevilla San Pablo

CURRENT METAR :
  • 222000Z 22008KT CAVOK 28/11 Q1012 NOSIG

EXPIRED METARs :
  • 221930Z 22009KT CAVOK 29/11 Q1012 NOSIG
  • 221900Z 22012KT CAVOK 31/11 Q1012 NOSIG
  • 221830Z 23013KT CAVOK 32/10 Q1011 NOSIG
  • 221800Z 23012KT CAVOK 32/11 Q1011 NOSIG
  • 221730Z 22010KT 190V250 CAVOK 33/11 Q1011 NOSIG

TAF TAF LEZL
Valid from the 22 at 15:00 until the 23 at 15:00 UTC


221400Z 2215/2315 24007KT CAVOK TX35/2215Z TN18/2305Z
No reported NOTAMs for that airfield.
1 SIGMET reported for the Madrid FIR (LECM) :
 
SIGMET 3  cancelation
LECM SIGMET 1 VALID 220525/230000 LEVA
LECM MADRID FIR/UIR CNL SIGMET 3 212243/230000=



MET'MAP, your aeronautical weather chart ! - Copyright ORBIFLY December 2007 - Disclaimer

ORBIFLY MET'MAP TEAM :

Programming & Development : Alexandra Zaïnal
Concept & Development : Baudouin d'Aumeries
Co-Development & Prog : Marc-Olivier Méhu
Technical & hardware support : Manuel Goepfert

Contact : metmap@orbifly.com




SOURCES & CREDITS :

   NOAA